Weather Models
Both GFS & NAM
00z 06z 12z 18z
24hr Precip
00z 06z 12z 18z
36hr Simulated radar
00z 06z 12z 18z
SKEWT Soundings
00z 12z
Current Conditions (Updated 3:35am on 4/13/21)
Temperature
 48°
-0.17
50°  
48°  
0
10
20
30
40
50
60
70
80
90
100
Dew Point
43°
43°  
42°  
-20
-10
0
10
20
30
40
50
60
70
80
Wind Chill
48°
50°  
43°  
-20
-10
0
10
20
30
40
50
60
70
80
Wind Chill
Humidity
83%
83% 
76% 
0
10
20
30
40
50
60
70
80
90
100
Barometer
30.01
   Rising
30.01  
29.99  
28.00
28.30
28.60
28.90
29.20
29.50
29.80
30.10
30.40
30.70
31.00
Temperature
Dew Point
Humidity
Pressure
Wind
0mph
 SE
Daily Rain
.00
.05
.10
.15
.20
.25
.30
.35
.40
.45
.50
Rain Today
 0.02" 
Month Rain
0.00
0.20
0.40
0.60
0.80
1.00
1.20
1.40
1.60
1.80
2.00
Month Rain
 1.03" 
Year Rain
0.00
2.50
5.00
7.50
10.00
12.50
15.00
17.50
20.00
22.50
25.00
Year Rain
 10.52" 
Sun & Moon Data
Sunrise 6:23am
Sunset 7:35pm
Moonrise 7:22am
Moonset 9:15pm
Moon % 1%
Other Rain Data
Past Hour 0.00 Past 24 Hours 0.02
Past 3 Hours 0.02 Past 7 Days 0.98
Past 6 Hours 0.02
Cloud Height
1225


7 Day Forecast
NWS Forecast for Philadelphia PA
National Weather Service Forecast for: Philadelphia PA
Issued by: National Weather Service Philadelphia, PA
Updated: 1:11 am EDT Apr 13, 2021

Philadelphia PA.
 
Overnight

Overnight: A chance of showers.  Cloudy, with a low around 45. Northeast wind around 5 mph.  Chance of precipitation is 40%. New precipitation amounts of less than a tenth of an inch possible.
Chance
Showers
Tuesday

Tuesday: Cloudy through mid morning, then gradual clearing, with a high near 63. North wind around 5 mph.
Gradual
Clearing
Tuesday
Night
Tuesday Night: Partly cloudy, with a low around 47. Calm wind.
Partly Cloudy
Wednesday

Wednesday: A chance of rain, mainly after 3pm.  Mostly cloudy, with a high near 66. Calm wind becoming southwest around 5 mph in the afternoon.  Chance of precipitation is 30%.
Chance Rain
Wednesday
Night
Wednesday Night: A chance of rain.  Mostly cloudy, with a low around 51. Southwest wind around 5 mph becoming calm  in the evening.  Chance of precipitation is 50%. New precipitation amounts of less than a tenth of an inch possible.
Chance Rain
Thursday

Thursday: Rain likely, mainly after 9am.  Mostly cloudy, with a high near 58. Chance of precipitation is 60%. New precipitation amounts between a half and three quarters of an inch possible.
Rain Likely
Thursday
Night
Thursday Night: Rain likely before 9pm, then a chance of showers after 9pm.  Mostly cloudy, with a low around 42. Chance of precipitation is 60%.
Rain Likely
Friday

Friday: A chance of showers before 3pm.  Mostly cloudy, with a high near 55. Chance of precipitation is 40%.
Chance
Showers
Friday
Night
Friday Night: Mostly cloudy, with a low around 41.
Mostly Cloudy
Lo 45 °F Hi 63 °F Lo 47 °F Hi 66 °F Lo 51 °F Hi 58 °F Lo 42 °F Hi 55 °F Lo 41 °F

Hazardous Weather Outlook
 

Overnight
 
A chance of showers. Cloudy, with a low around 45. Northeast wind around 5 mph. Chance of precipitation is 40%. New precipitation amounts of less than a tenth of an inch possible.
Tuesday
 
Cloudy through mid morning, then gradual clearing, with a high near 63. North wind around 5 mph.
Tuesday Night
 
Partly cloudy, with a low around 47. Calm wind.
Wednesday
 
A chance of rain, mainly after 3pm. Mostly cloudy, with a high near 66. Calm wind becoming southwest around 5 mph in the afternoon. Chance of precipitation is 30%.
Wednesday Night
 
A chance of rain. Mostly cloudy, with a low around 51. Southwest wind around 5 mph becoming calm in the evening. Chance of precipitation is 50%. New precipitation amounts of less than a tenth of an inch possible.
Thursday
 
Rain likely, mainly after 9am. Mostly cloudy, with a high near 58. Chance of precipitation is 60%. New precipitation amounts between a half and three quarters of an inch possible.
Thursday Night
 
Rain likely before 9pm, then a chance of showers after 9pm. Mostly cloudy, with a low around 42. Chance of precipitation is 60%.
Friday
 
A chance of showers before 3pm. Mostly cloudy, with a high near 55. Chance of precipitation is 40%.
Friday Night
 
Mostly cloudy, with a low around 41.
Saturday
 
Mostly sunny, with a high near 62.
Saturday Night
 
Partly cloudy, with a low around 45.
Sunday
 
A chance of showers. Mostly sunny, with a high near 65. Chance of precipitation is 30%.
Sunday Night
 
A chance of showers. Partly cloudy, with a low around 46. Chance of precipitation is 30%.
Monday
 
Partly sunny, with a high near 64.

 

Forecast from NOAA-NWS for Philadelphia PA.

Current Front Map
Current Radar
Area Weather Current Conditions
Nearby METAR Reports

KPHL - Philadelphia, Pennsylvania
Updated: Tue, 13-Apr-2021 3:24am EDT
Overcast
Overcast
 Wind from calm
Wind: Calm
Temperature: 46°F , 8°C
Dew Point: 45°F , 7°C
Humidity: 93%
Barometer: 29.97 inHg , 1014.9 hPa
Clouds: Overcast
Visibility: 7 miles , 11 km
Cloud details: Mostly Cloudy 600 ft
Overcast 1000 ft
2021/04/13 07:24 KPHL 130724Z 00000KT 7SM BKN006 OVC010 08/07 A2997 RMK AO2 T00780067
KMPO - Mt. Pocono, Pennsylvania
Updated: Tue, 13-Apr-2021 3:01am EDT
Overcast
Overcast
 Wind from NE
Wind: NE 6 mph , 9 km/h
Temperature: 37°F , 3°C
Wind Chill: 32°F , 0°C
Dew Point: 36°F , 2°C
Humidity: 93%
Barometer: 29.94 inHg , 1013.9 hPa
Clouds: Overcast
Visibility: 10 miles , 16 km
Cloud details: Overcast 1600 ft
2021/04/13 07:01 KMPO 130701Z AUTO 05005KT 10SM OVC016 03/02 A2994 RMK AO2 T00330017
 
KACY - Atlantic City, New Jersey
Updated: Tue, 13-Apr-2021 2:54am EDT
Overcast
Overcast
 Wind from N
Wind: N 8 mph , 13 km/h
Temperature: 46°F , 8°C
Wind Chill: 42°F , 6°C
Dew Point: 43°F , 6°C
Humidity: 87%
Barometer: 29.94 inHg , 1013.9 hPa
Clouds: Overcast
Visibility: 10 miles , 16 km
Cloud details: Partly Cloudy 1500 ft
Overcast 2000 ft
2021/04/13 06:54 KACY 130654Z 01007KT 10SM SCT015 OVC020 08/06 A2994 RMK AO2 SLP138 T00780056
KMIV - Millville, New Jersey
Updated: Tue, 13-Apr-2021 2:54am EDT
Overcast
Overcast
 Wind from NNE
Wind: NNE 6 mph , 9 km/h
Temperature: 46°F , 8°C
Wind Chill: 43°F , 6°C
Dew Point: 41°F , 5°C
Humidity: 82%
Barometer: 29.95 inHg , 1014.2 hPa
Clouds: Overcast
Visibility: 10 miles , 16 km
Cloud details: Mostly Cloudy 2900 ft
Overcast 3600 ft
2021/04/13 06:54 KMIV 130654Z AUTO 02005KT 10SM BKN029 OVC036 08/05 A2995 RMK AO2 SLP142 T00780050
 
KWWD - Wildwood, New Jersey
Updated: Tue, 13-Apr-2021 2:56am EDT
Overcast
Overcast
 Wind from N
Wind: N 7 mph , 11 km/h
Temperature: 46°F , 8°C
Wind Chill: 42°F , 6°C
Dew Point: 43°F , 6°C
Humidity: 87%
Barometer: 29.95 inHg , 1014.2 hPa
Clouds: Overcast
Visibility: 10 miles , 16 km
Cloud details: Mostly Cloudy 1700 ft
Mostly Cloudy 2300 ft
Overcast 3300 ft
2021/04/13 06:56 KWWD 130656Z AUTO 01006KT 10SM BKN017 BKN023 OVC033 08/06 A2995 RMK AO2 SLP144 T00830061 $
KDOV - Dover Afb, Delaware
Updated: Tue, 13-Apr-2021 2:56am EDT
Overcast
Overcast
 Wind from NNE
Wind: NNE 8 mph , 13 km/h
Temperature: 46°F , 8°C
Wind Chill: 42°F , 6°C
Dew Point: 45°F , 7°C
Humidity: 93%
Barometer: 29.95 inHg , 1014.2 hPa
Clouds: Overcast
Visibility: 10 miles , 16 km
Cloud details: Overcast 2200 ft
2021/04/13 06:56 KDOV 130656Z AUTO 02007KT 10SM OVC022 08/07 A2995 RMK AO2 CIG 021 RWY14 CIG 021 RWY19 SLP146 T00840069 $
Severe Weather Map